Time;durP1;ratioP1;P1;durP2;ratioP2;P2;SDS_P1;SDS_P2;PMS_P1;PMS_P2;Temp;Humidity;BMP_temperature;BMP_pressure;BME280_temperature;BME280_humidity;BME280_pressure;Samples;Min_cycle;Max_cycle;Signal;HPM_P1;HPM_P2
2022/03/08 00:02:19;;;;;;;24.20;16.92;;;3.80;97.80;;;;;;5044524;28;20082;-71
2022/03/08 00:04:45;;;;;;;26.30;19.13;;;3.80;97.90;;;;;;5048579;28;20557;-70
2022/03/08 00:07:12;;;;;;;36.75;22.17;;;3.80;97.90;;;;;;5041887;28;20032;-72
2022/03/08 00:09:38;;;;;;;30.50;20.48;;;3.80;97.90;;;;;;5045189;28;20105;-72
2022/03/08 00:12:04;;;;;;;25.27;20.25;;;3.80;97.90;;;;;;5046079;28;20039;-71
2022/03/08 00:14:30;;;;;;;25.92;20.52;;;3.80;98.00;;;;;;5037166;28;20026;-71
2022/03/08 00:16:56;;;;;;;27.25;20.92;;;3.80;98.30;;;;;;5043288;28;20509;-71
2022/03/08 00:19:22;;;;;;;28.60;18.02;;;3.80;97.90;;;;;;5042092;28;20064;-71
2022/03/08 00:21:48;;;;;;;25.92;19.42;;;3.80;97.70;;;;;;5042428;28;20152;-72
2022/03/08 00:24:16;;;;;;;24.90;20.35;;;3.90;97.90;;;;;;5042023;28;20032;-71
2022/03/08 00:26:42;;;;;;;18.55;15.25;;;3.90;97.50;;;;;;5041560;28;20021;-71
2022/03/08 00:29:08;;;;;;;28.23;20.10;;;3.80;97.60;;;;;;5043609;28;20029;-72
2022/03/08 00:31:34;;;;;;;27.83;20.65;;;3.80;97.50;;;;;;5040378;28;20123;-71
2022/03/08 00:34:01;;;;;;;28.70;19.40;;;3.80;97.70;;;;;;5042179;28;20053;-72
2022/03/08 00:36:27;;;;;;;24.73;18.48;;;3.70;97.60;;;;;;5038947;28;20544;-71
2022/03/08 00:38:53;;;;;;;31.83;22.38;;;3.80;97.80;;;;;;5037055;28;20025;-71
2022/03/08 00:41:20;;;;;;;30.75;21.27;;;3.80;97.70;;;;;;5046474;28;20382;-71
2022/03/08 00:43:46;;;;;;;29.95;18.70;;;3.70;97.50;;;;;;5040258;28;20048;-70
2022/03/08 00:46:12;;;;;;;23.55;17.67;;;3.70;97.60;;;;;;5049576;28;20056;-70
2022/03/08 00:48:38;;;;;;;23.35;17.40;;;3.80;97.00;;;;;;5050464;28;20082;-71
2022/03/08 00:51:04;;;;;;;24.60;18.83;;;3.90;97.10;;;;;;5049992;28;20033;-70
2022/03/08 00:53:29;;;;;;;23.95;19.33;;;3.80;97.10;;;;;;5049112;28;20397;-71
2022/03/08 00:55:55;;;;;;;24.20;18.38;;;3.80;97.10;;;;;;5050875;28;20399;-71
2022/03/08 00:58:21;;;;;;;22.60;17.52;;;3.80;97.20;;;;;;5041728;28;20030;-71
2022/03/08 01:00:47;;;;;;;24.25;19.17;;;3.80;97.20;;;;;;5041728;28;20485;-72
2022/03/08 01:03:13;;;;;;;23.70;16.23;;;3.90;97.50;;;;;;5046258;28;20025;-71
2022/03/08 01:05:39;;;;;;;20.10;17.98;;;3.90;96.80;;;;;;5041773;28;20164;-72
2022/03/08 01:08:06;;;;;;;24.10;16.73;;;3.80;97.30;;;;;;5044127;28;20029;-71
2022/03/08 01:10:32;;;;;;;19.27;15.23;;;3.80;97.20;;;;;;5043413;28;20331;-71
2022/03/08 01:12:59;;;;;;;18.10;15.10;;;3.90;97.10;;;;;;5043123;28;20044;-70
2022/03/08 01:15:25;;;;;;;18.45;15.35;;;3.90;96.90;;;;;;5042031;28;20372;-71
2022/03/08 01:17:53;;;;;;;25.80;16.50;;;3.90;96.90;;;;;;5037279;28;20021;-70
2022/03/08 01:20:19;;;;;;;20.58;16.77;;;3.90;96.90;;;;;;5039112;28;20112;-71
2022/03/08 01:22:45;;;;;;;19.92;14.48;;;3.80;96.90;;;;;;5042862;28;20150;-71
2022/03/08 01:25:14;;;;;;;23.17;15.55;;;3.80;97.30;;;;;;5041513;28;20133;-72
2022/03/08 01:27:41;;;;;;;20.30;15.73;;;3.70;97.20;;;;;;5038949;28;20036;-72
2022/03/08 01:30:10;;;;;;;18.70;14.93;;;3.70;97.30;;;;;;5054217;28;20459;-71
2022/03/08 01:32:35;;;;;;;17.45;13.85;;;3.60;97.20;;;;;;5044752;28;20033;-71
2022/03/08 01:35:01;;;;;;;15.25;12.27;;;3.50;97.10;;;;;;5043560;28;20094;-70
2022/03/08 01:37:27;;;;;;;18.30;12.60;;;3.70;97.00;;;;;;5043214;28;20044;-70
2022/03/08 01:39:53;;;;;;;18.58;12.40;;;3.80;97.00;;;;;;5039870;28;20048;-70
2022/03/08 01:42:22;;;;;;;14.32;12.10;;;3.70;97.00;;;;;;5039156;28;20071;-70
2022/03/08 01:44:48;;;;;;;14.35;12.82;;;3.70;97.10;;;;;;5037799;28;20127;-71
2022/03/08 01:47:15;;;;;;;13.27;11.63;;;3.80;97.30;;;;;;5041944;28;20029;-70
2022/03/08 01:49:42;;;;;;;14.93;12.38;;;3.90;97.10;;;;;;5038102;28;20497;-70
2022/03/08 01:52:08;;;;;;;17.38;11.68;;;3.90;96.60;;;;;;5035084;28;20449;-70
2022/03/08 01:54:34;;;;;;;14.88;12.82;;;4.00;96.80;;;;;;5043969;28;20025;-71
2022/03/08 01:56:59;;;;;;;16.90;11.52;;;3.90;96.60;;;;;;5037545;28;20047;-71
2022/03/08 01:59:25;;;;;;;14.48;11.50;;;3.80;96.90;;;;;;5044902;28;20021;-71
2022/03/08 02:01:51;;;;;;;18.77;11.63;;;3.90;96.50;;;;;;5038872;28;20030;-71
2022/03/08 02:04:18;;;;;;;16.67;10.70;;;3.90;96.90;;;;;;5037052;28;20021;-70
2022/03/08 02:06:47;;;;;;;10.90;9.75;;;4.00;96.70;;;;;;5038893;28;20471;-71
2022/03/08 02:09:13;;;;;;;10.35;9.07;;;4.00;97.00;;;;;;5038286;28;20243;-71
2022/03/08 02:11:40;;;;;;;15.23;11.27;;;4.00;97.10;;;;;;5039591;28;20029;-71
2022/03/08 02:14:06;;;;;;;13.90;11.10;;;4.00;97.10;;;;;;5036935;28;20479;-70
2022/03/08 02:16:32;;;;;;;11.57;10.15;;;3.90;97.20;;;;;;5035825;28;20156;-71
2022/03/08 02:18:58;;;;;;;13.85;10.32;;;3.80;97.60;;;;;;5039088;28;20476;-71
2022/03/08 02:21:25;;;;;;;13.35;9.73;;;3.70;97.20;;;;;;5037123;28;20037;-70
2022/03/08 02:23:51;;;;;;;11.25;9.10;;;3.60;97.60;;;;;;5039926;28;20115;-71
2022/03/08 02:26:18;;;;;;;12.18;9.85;;;3.80;97.10;;;;;;5036331;28;20505;-72
2022/03/08 02:28:44;;;;;;;14.15;9.65;;;3.90;97.10;;;;;;5039209;28;20060;-71
2022/03/08 02:31:10;;;;;;;11.43;10.25;;;3.80;97.00;;;;;;5038681;28;20057;-73
2022/03/08 02:33:36;;;;;;;9.48;8.43;;;3.70;97.40;;;;;;5040416;28;20522;-70
2022/03/08 02:36:01;;;;;;;11.80;8.27;;;3.70;97.30;;;;;;5035855;28;20022;-71
2022/03/08 02:38:27;;;;;;;10.43;8.93;;;4.00;96.80;;;;;;5038306;28;20060;-72
2022/03/08 02:40:53;;;;;;;10.02;9.02;;;4.10;96.90;;;;;;5041805;28;20510;-70
2022/03/08 02:43:19;;;;;;;10.88;7.07;;;4.10;96.90;;;;;;5043185;28;20021;-70
2022/03/08 02:45:45;;;;;;;11.95;9.32;;;4.20;96.80;;;;;;5037949;28;20075;-72
2022/03/08 02:48:11;;;;;;;10.18;9.05;;;4.10;96.80;;;;;;5037606;28;20021;-71
2022/03/08 02:50:38;;;;;;;10.52;8.18;;;4.10;96.80;;;;;;5036054;28;20700;-70
2022/03/08 02:53:04;;;;;;;9.73;7.88;;;4.00;97.10;;;;;;5041723;28;20074;-71
2022/03/08 02:55:32;;;;;;;9.80;8.32;;;3.90;97.50;;;;;;5045530;28;20033;-71
2022/03/08 02:57:58;;;;;;;7.82;7.03;;;4.00;97.30;;;;;;5041002;28;20021;-70
2022/03/08 03:00:25;;;;;;;9.68;8.32;;;4.10;96.90;;;;;;5040569;28;20022;-70
2022/03/08 03:02:51;;;;;;;8.30;7.22;;;4.00;97.10;;;;;;5042318;28;20494;-71
2022/03/08 03:05:17;;;;;;;7.63;6.82;;;4.10;97.40;;;;;;5046091;28;21431;-72
2022/03/08 03:07:43;;;;;;;12.15;7.63;;;4.00;97.20;;;;;;5042383;28;20192;-71
2022/03/08 03:10:13;;;;;;;10.57;7.90;;;4.00;97.20;;;;;;5045938;28;20536;-71
2022/03/08 03:12:39;;;;;;;11.25;7.97;;;4.10;97.20;;;;;;5039815;28;20025;-71
2022/03/08 03:15:08;;;;;;;10.23;7.95;;;4.10;97.20;;;;;;5042545;28;20040;-72
2022/03/08 03:17:33;;;;;;;8.35;7.45;;;4.00;97.50;;;;;;5040390;28;20026;-71
2022/03/08 03:19:59;;;;;;;9.65;7.63;;;3.80;98.00;;;;;;5043847;28;20096;-70
2022/03/08 03:22:25;;;;;;;10.15;8.23;;;4.00;98.00;;;;;;5049789;28;20413;-70
2022/03/08 03:24:51;;;;;;;9.13;8.18;;;3.80;98.20;;;;;;5042850;28;20037;-71
2022/03/08 03:27:16;;;;;;;12.77;8.70;;;3.70;98.50;;;;;;5042044;28;20025;-72
2022/03/08 03:29:42;;;;;;;10.68;8.73;;;3.70;98.30;;;;;;5043968;28;20479;-70
2022/03/08 03:32:14;;;;;;;8.75;7.65;;;3.80;98.20;;;;;;5040539;28;20475;-71
2022/03/08 03:34:40;;;;;;;12.55;8.07;;;3.80;98.10;;;;;;5044514;28;20021;-72
2022/03/08 03:37:06;;;;;;;10.30;7.97;;;3.70;98.30;;;;;;5040544;28;20372;-70
2022/03/08 03:39:31;;;;;;;8.45;7.45;;;3.70;98.50;;;;;;5044507;28;20432;-69
2022/03/08 03:41:57;;;;;;;8.93;7.38;;;3.80;98.70;;;;;;5038993;28;20082;-70
2022/03/08 03:44:23;;;;;;;8.98;7.75;;;3.90;98.40;;;;;;5044396;28;20049;-71
2022/03/08 03:46:49;;;;;;;9.70;8.18;;;3.80;98.30;;;;;;5039008;28;20495;-70
2022/03/08 03:49:15;;;;;;;10.43;8.80;;;3.90;98.30;;;;;;5038704;28;20501;-71
2022/03/08 03:51:41;;;;;;;11.07;8.50;;;3.90;98.50;;;;;;5046464;28;20120;-71
2022/03/08 03:54:07;;;;;;;11.20;8.10;;;4.00;98.70;;;;;;5040982;28;20052;-70
2022/03/08 03:56:33;;;;;;;9.07;7.53;;;3.90;98.90;;;;;;5038379;28;20440;-71
2022/03/08 03:58:59;;;;;;;12.55;8.68;;;3.90;98.80;;;;;;5038759;28;20100;-71
2022/03/08 04:01:24;;;;;;;11.90;8.32;;;3.90;98.90;;;;;;5044185;28;20025;-71
2022/03/08 04:03:50;;;;;;;10.77;8.18;;;3.80;98.90;;;;;;5036667;28;20052;-71
2022/03/08 04:06:16;;;;;;;12.65;8.32;;;3.60;99.30;;;;;;5042307;28;20160;-72
2022/03/08 04:08:42;;;;;;;10.35;9.02;;;3.70;99.50;;;;;;5040778;28;20092;-71
2022/03/08 04:11:07;;;;;;;10.32;8.23;;;3.70;99.40;;;;;;5039616;28;20025;-71
2022/03/08 04:13:33;;;;;;;7.65;6.85;;;3.70;99.50;;;;;;5045626;28;20145;-72
2022/03/08 04:15:59;;;;;;;12.13;8.35;;;3.70;99.80;;;;;;5040379;28;20034;-70
2022/03/08 04:18:25;;;;;;;12.00;8.63;;;3.70;99.90;;;;;;5042901;28;20059;-71
2022/03/08 04:20:50;;;;;;;9.00;7.75;;;3.80;99.90;;;;;;5040230;28;20035;-71
2022/03/08 04:23:16;;;;;;;12.32;8.68;;;3.90;99.90;;;;;;5042658;28;20120;-70
2022/03/08 04:25:42;;;;;;;10.18;7.60;;;3.90;99.90;;;;;;5042213;28;20032;-70
2022/03/08 04:28:07;;;;;;;9.27;6.95;;;3.90;99.90;;;;;;5041905;28;20036;-70
2022/03/08 04:30:33;;;;;;;10.50;8.38;;;3.90;99.90;;;;;;5045809;28;20162;-70
2022/03/08 04:32:59;;;;;;;9.10;6.90;;;4.00;99.90;;;;;;5042193;28;20056;-70
2022/03/08 04:35:25;;;;;;;9.80;8.20;;;4.00;99.90;;;;;;5041907;28;20514;-70
2022/03/08 04:37:51;;;;;;;13.48;9.07;;;4.00;99.90;;;;;;5042442;28;20036;-69
2022/03/08 04:40:17;;;;;;;9.35;8.35;;;3.90;99.90;;;;;;5041569;28;20021;-70
2022/03/08 04:42:43;;;;;;;9.30;8.25;;;3.80;99.90;;;;;;5043377;28;20047;-71
2022/03/08 04:45:11;;;;;;;10.40;8.02;;;3.70;99.90;;;;;;5042675;28;20390;-71
2022/03/08 04:47:37;;;;;;;9.93;8.45;;;3.70;99.90;;;;;;5042891;28;20099;-69
2022/03/08 04:50:14;;;;;;;9.07;7.93;;;3.70;99.90;;;;;;5041127;28;20053;-71
2022/03/08 04:52:41;;;;;;;15.57;8.63;;;3.70;99.90;;;;;;5042685;28;20017;-73
2022/03/08 04:55:08;;;;;;;9.20;8.27;;;3.80;99.90;;;;;;5044433;28;20033;-71
2022/03/08 04:57:34;;;;;;;9.48;8.48;;;3.80;99.90;;;;;;5046103;28;20569;-72
2022/03/08 05:00:01;;;;;;;11.18;8.35;;;3.80;99.90;;;;;;5046040;28;20179;-70
2022/03/08 05:02:27;;;;;;;10.55;7.65;;;3.80;99.90;;;;;;5044962;28;20364;-73
2022/03/08 05:04:52;;;;;;;10.50;7.97;;;4.00;99.90;;;;;;5039374;28;20053;-72
2022/03/08 05:07:18;;;;;;;9.85;8.68;;;4.00;99.90;;;;;;5038026;28;20025;-70
2022/03/08 05:09:44;;;;;;;13.75;8.93;;;4.00;99.90;;;;;;5044934;28;20037;-71
2022/03/08 05:12:10;;;;;;;9.30;8.30;;;3.80;99.90;;;;;;5035926;28;20111;-71
2022/03/08 05:14:36;;;;;;;9.60;8.60;;;3.70;99.90;;;;;;5040363;28;20075;-70
2022/03/08 05:17:02;;;;;;;14.02;8.57;;;3.70;99.90;;;;;;5038642;28;20468;-73
2022/03/08 05:19:28;;;;;;;11.55;9.40;;;3.70;99.90;;;;;;5042704;28;20025;-72
2022/03/08 05:21:54;;;;;;;10.15;8.65;;;3.60;99.90;;;;;;5042157;28;20039;-70
2022/03/08 05:24:19;;;;;;;9.18;8.20;;;3.60;99.90;;;;;;5040843;28;20386;-71
2022/03/08 05:26:45;;;;;;;10.13;8.05;;;3.40;99.90;;;;;;5043069;28;20037;-71
2022/03/08 05:29:11;;;;;;;13.00;9.38;;;3.30;99.90;;;;;;5042114;28;20091;-70
2022/03/08 05:31:37;;;;;;;10.45;9.05;;;3.10;99.90;;;;;;5043140;28;20104;-69
2022/03/08 05:34:02;;;;;;;13.90;10.93;;;3.30;99.90;;;;;;5040195;28;20026;-71
2022/03/08 05:36:28;;;;;;;10.85;8.95;;;3.30;99.90;;;;;;5044243;28;20082;-70
2022/03/08 05:38:54;;;;;;;16.40;9.02;;;3.20;99.90;;;;;;5041110;28;20086;-71
2022/03/08 05:41:20;;;;;;;12.02;10.00;;;3.10;99.90;;;;;;5044041;28;20022;-71
2022/03/08 05:43:46;;;;;;;11.45;8.90;;;3.00;99.90;;;;;;5032206;28;20656;-73
2022/03/08 05:46:12;;;;;;;10.00;8.98;;;2.90;99.90;;;;;;5037797;28;20057;-72
2022/03/08 05:48:38;;;;;;;10.77;9.05;;;3.00;99.90;;;;;;5042017;28;20029;-72
2022/03/08 05:51:04;;;;;;;10.30;8.55;;;2.90;99.90;;;;;;5040918;28;20566;-70
2022/03/08 05:53:30;;;;;;;16.05;8.70;;;2.80;99.90;;;;;;5034626;28;20039;-73
2022/03/08 05:55:56;;;;;;;14.70;9.70;;;2.70;99.90;;;;;;5038710;28;20486;-71
2022/03/08 05:58:22;;;;;;;11.93;8.90;;;2.90;99.90;;;;;;5038556;28;20133;-70
2022/03/08 06:00:48;;;;;;;17.30;10.32;;;2.80;99.90;;;;;;5032778;28;20021;-71
2022/03/08 06:03:14;;;;;;;12.50;9.82;;;2.80;99.90;;;;;;5040495;28;20104;-72
2022/03/08 06:05:39;;;;;;;13.23;10.43;;;2.90;99.90;;;;;;5040421;28;20051;-70
2022/03/08 06:08:05;;;;;;;15.27;10.05;;;2.80;99.90;;;;;;5037815;28;20056;-71
2022/03/08 06:10:32;;;;;;;13.73;9.48;;;2.70;99.90;;;;;;5041663;28;20028;-71
2022/03/08 06:12:58;;;;;;;11.95;8.95;;;2.90;99.90;;;;;;5033285;28;20064;-71
2022/03/08 06:15:24;;;;;;;14.85;8.75;;;3.00;99.90;;;;;;5042025;28;21976;-71
2022/03/08 06:17:49;;;;;;;10.45;8.32;;;3.00;99.90;;;;;;5044677;28;20104;-70
2022/03/08 06:20:15;;;;;;;18.80;9.70;;;3.20;99.90;;;;;;5035951;28;20380;-69
2022/03/08 06:22:41;;;;;;;11.75;8.45;;;3.40;99.90;;;;;;5037876;28;20021;-71
2022/03/08 06:25:08;;;;;;;12.48;8.85;;;3.60;99.90;;;;;;5040283;28;20418;-70
2022/03/08 06:27:34;;;;;;;13.27;9.80;;;3.80;99.90;;;;;;5039859;28;20483;-70
2022/03/08 06:30:00;;;;;;;13.07;9.55;;;3.90;99.90;;;;;;5040286;28;20040;-70
2022/03/08 06:32:26;;;;;;;15.27;8.85;;;4.00;99.90;;;;;;5038543;28;20021;-71
2022/03/08 06:34:51;;;;;;;17.35;9.63;;;4.20;99.90;;;;;;5039684;28;20104;-70
2022/03/08 06:37:18;;;;;;;10.60;7.53;;;4.70;99.90;;;;;;5043791;28;20044;-69
2022/03/08 06:39:45;;;;;;;9.43;8.40;;;5.00;99.90;;;;;;5047290;28;20390;-70
2022/03/08 06:42:11;;;;;;;12.05;8.48;;;5.10;99.90;;;;;;5049497;28;20021;-66
2022/03/08 06:44:39;;;;;;;10.75;9.20;;;5.20;99.90;;;;;;5053775;28;20107;-67
2022/03/08 06:47:09;;;;;;;11.30;10.18;;;5.10;99.90;;;;;;5048245;28;20105;-66
2022/03/08 06:49:40;;;;;;;10.45;8.70;;;5.00;99.90;;;;;;5042614;28;20095;-67
2022/03/08 06:52:07;;;;;;;11.10;8.20;;;4.90;99.90;;;;;;5043105;28;20064;-66
2022/03/08 06:54:37;;;;;;;10.32;9.13;;;5.00;99.90;;;;;;5047273;28;20159;-67
2022/03/08 06:57:09;;;;;;;10.30;9.25;;;5.00;99.90;;;;;;5045523;28;20088;-67
2022/03/08 06:59:36;;;;;;;10.50;8.88;;;5.10;99.90;;;;;;5047052;28;20017;-68
2022/03/08 07:02:08;;;;;;;12.57;7.97;;;5.10;99.90;;;;;;5045286;28;20467;-68
2022/03/08 07:04:34;;;;;;;9.25;8.20;;;5.20;99.90;;;;;;5061897;28;20178;-67
2022/03/08 07:07:14;;;;;;;10.85;8.52;;;5.20;99.90;;;;;;5043148;28;20017;-67
2022/03/08 07:09:43;;;;;;;13.82;8.70;;;5.20;99.90;;;;;;5048601;28;20106;-67
2022/03/08 07:12:09;;;;;;;13.48;9.38;;;5.30;99.90;;;;;;5052108;28;20497;-66
2022/03/08 07:14:38;;;;;;;14.57;9.25;;;5.20;99.90;;;;;;5052102;28;20499;-69
2022/03/08 07:17:04;;;;;;;12.40;7.97;;;5.30;99.90;;;;;;5047655;28;20025;-67
2022/03/08 07:19:29;;;;;;;13.02;8.75;;;5.40;99.90;;;;;;5044265;28;20097;-66
2022/03/08 07:21:55;;;;;;;14.38;8.30;;;5.40;99.90;;;;;;5038660;28;20040;-67
2022/03/08 07:24:21;;;;;;;17.02;8.82;;;5.40;99.90;;;;;;5040004;28;20041;-66
2022/03/08 07:26:52;;;;;;;11.55;9.73;;;5.50;99.90;;;;;;5045293;28;20199;-68
2022/03/08 07:29:18;;;;;;;;;;;5.60;99.90;;;;;;5046575;28;20114;-64
2022/03/08 07:31:44;;;;;;;17.10;8.25;;;5.60;99.90;;;;;;5041955;28;19909;-66
2022/03/08 07:34:10;;;;;;;11.73;7.10;;;5.60;99.90;;;;;;5049342;28;20044;-65
2022/03/08 07:36:38;;;;;;;14.02;8.32;;;5.60;99.80;;;;;;5044152;28;20023;-65
2022/03/08 07:39:04;;;;;;;12.30;9.73;;;5.60;99.40;;;;;;5042079;28;20333;-64
2022/03/08 07:41:30;;;;;;;18.25;9.27;;;5.50;99.20;;;;;;5042570;28;20503;-66
2022/03/08 07:43:55;;;;;;;13.10;9.45;;;5.50;99.40;;;;;;5039282;28;20017;-64
2022/03/08 07:46:21;;;;;;;15.68;9.43;;;5.50;99.50;;;;;;5043108;28;20519;-64
2022/03/08 07:48:47;;;;;;;12.30;9.90;;;5.60;99.60;;;;;;5050423;28;20013;-65
2022/03/08 07:51:13;;;;;;;11.00;7.80;;;5.50;99.40;;;;;;5044550;28;20554;-66
2022/03/08 07:53:39;;;;;;;14.32;9.35;;;5.60;99.50;;;;;;5047655;28;20029;-64
2022/03/08 07:56:05;;;;;;;11.30;8.85;;;5.60;99.90;;;;;;5039105;28;20028;-63
2022/03/08 07:58:30;;;;;;;14.23;8.63;;;5.60;99.60;;;;;;5040347;28;20030;-66
2022/03/08 08:00:56;;;;;;;9.57;8.40;;;5.70;99.70;;;;;;5040524;28;20021;-63
2022/03/08 08:03:22;;;;;;;14.25;9.45;;;5.70;99.40;;;;;;5041034;28;20025;-65
2022/03/08 08:05:48;;;;;;;10.50;8.45;;;5.80;99.70;;;;;;5041787;28;20106;-64
2022/03/08 08:08:13;;;;;;;12.85;8.75;;;5.90;99.90;;;;;;5042549;28;20025;-67
2022/03/08 08:10:39;;;;;;;12.27;9.02;;;5.90;99.90;;;;;;5050455;28;20040;-66
2022/03/08 08:13:05;;;;;;;19.77;9.20;;;5.90;99.90;;;;;;5041827;28;20028;-67
2022/03/08 08:15:31;;;;;;;11.10;7.35;;;5.90;99.90;;;;;;5045161;28;20029;-67
2022/03/08 08:17:56;;;;;;;13.60;8.77;;;5.90;99.90;;;;;;5041414;28;20344;-66
2022/03/08 08:20:22;;;;;;;14.75;8.10;;;5.90;99.90;;;;;;5045157;28;20423;-66
2022/03/08 08:22:48;;;;;;;10.05;8.38;;;6.10;99.60;;;;;;5037619;28;20024;-66
2022/03/08 08:25:14;;;;;;;8.98;7.03;;;6.30;99.90;;;;;;5038060;28;20434;-65
2022/03/08 08:27:40;;;;;;;8.90;7.22;;;6.40;98.00;;;;;;5041067;28;20502;-66
2022/03/08 08:30:09;;;;;;;7.72;6.93;;;6.50;97.30;;;;;;5043018;28;20108;-65
2022/03/08 08:32:35;;;;;;;10.82;7.00;;;6.60;96.80;;;;;;5043010;28;20447;-66
2022/03/08 08:35:00;;;;;;;14.73;6.88;;;6.70;96.90;;;;;;5051144;28;20025;-66
2022/03/08 08:37:26;;;;;;;9.45;6.78;;;6.80;96.60;;;;;;5048750;28;20021;-67
2022/03/08 08:39:52;;;;;;;7.60;6.82;;;6.90;95.80;;;;;;5042081;28;20025;-67
2022/03/08 08:42:19;;;;;;;13.90;6.50;;;6.90;95.30;;;;;;5037816;28;20367;-68
2022/03/08 08:44:45;;;;;;;6.97;5.65;;;7.00;95.80;;;;;;5039049;28;20534;-67
2022/03/08 08:47:12;;;;;;;7.60;6.30;;;7.00;94.50;;;;;;5048961;28;20032;-67
2022/03/08 08:49:45;;;;;;;10.75;7.22;;;7.00;95.00;;;;;;5046239;28;20025;-67
2022/03/08 08:52:15;;;;;;;6.95;5.68;;;7.20;96.70;;;;;;5037667;28;20295;-66
2022/03/08 08:54:42;;;;;;;7.20;5.85;;;7.40;95.10;;;;;;5057556;28;20024;-67
2022/03/08 08:57:08;;;;;;;6.38;4.82;;;7.60;94.60;;;;;;5056141;28;20548;-68
2022/03/08 08:59:35;;;;;;;6.65;4.95;;;7.50;93.60;;;;;;5056953;28;20021;-68
2022/03/08 09:02:07;;;;;;;6.75;4.95;;;7.50;93.70;;;;;;5060402;28;20021;-66
2022/03/08 09:04:34;;;;;;;5.63;5.05;;;7.40;93.70;;;;;;5058631;28;20181;-66
2022/03/08 09:07:02;;;;;;;6.05;4.95;;;7.60;93.90;;;;;;5058397;28;20387;-68
2022/03/08 09:09:31;;;;;;;8.55;5.68;;;7.60;93.20;;;;;;5056722;28;20061;-67
2022/03/08 09:11:57;;;;;;;4.53;4.13;;;7.70;93.50;;;;;;5048571;28;20025;-67
2022/03/08 09:14:24;;;;;;;5.90;5.13;;;7.50;91.90;;;;;;5041289;28;20033;-66
2022/03/08 09:16:50;;;;;;;4.97;4.40;;;7.60;92.90;;;;;;5044068;28;20028;-65
2022/03/08 09:19:16;;;;;;;4.40;4.03;;;7.80;92.70;;;;;;5044982;28;20029;-68
2022/03/08 09:21:42;;;;;;;6.22;4.93;;;8.00;92.60;;;;;;5051138;28;20051;-67
2022/03/08 09:24:08;;;;;;;6.55;4.57;;;8.10;92.30;;;;;;5051235;28;20475;-67
2022/03/08 09:26:34;;;;;;;4.95;4.32;;;8.00;91.80;;;;;;5051207;28;20475;-67
2022/03/08 09:29:00;;;;;;;4.50;4.10;;;7.90;91.80;;;;;;5049154;28;20029;-67
2022/03/08 09:31:29;;;;;;;9.43;4.70;;;8.00;91.60;;;;;;5045248;28;20021;-67
2022/03/08 09:34:01;;;;;;;7.75;4.55;;;8.10;91.10;;;;;;5049969;28;20021;-66
2022/03/08 09:36:27;;;;;;;7.40;4.57;;;8.00;91.20;;;;;;5051359;28;20029;-67
2022/03/08 09:39:02;;;;;;;10.48;6.60;;;8.10;91.90;;;;;;5049364;28;20399;-67
2022/03/08 09:41:32;;;;;;;5.32;4.30;;;8.20;92.00;;;;;;5052056;28;20020;-66
2022/03/08 09:43:59;;;;;;;5.15;4.40;;;8.20;91.10;;;;;;5047861;28;20033;-66
2022/03/08 09:46:25;;;;;;;4.55;4.18;;;8.20;91.50;;;;;;5050193;28;20491;-66
2022/03/08 09:48:51;;;;;;;6.60;4.55;;;8.20;91.20;;;;;;5050389;28;20029;-66
2022/03/08 09:51:17;;;;;;;7.68;4.78;;;8.10;91.20;;;;;;5065205;28;20086;-66
2022/03/08 09:53:44;;;;;;;5.25;4.53;;;8.10;90.80;;;;;;5048731;28;20043;-65
2022/03/08 09:56:10;;;;;;;4.97;4.20;;;8.00;90.30;;;;;;5049020;28;20052;-66
2022/03/08 09:58:39;;;;;;;5.18;4.30;;;7.80;90.30;;;;;;5047910;28;20047;-66
2022/03/08 10:01:05;;;;;;;8.80;5.50;;;8.00;91.40;;;;;;5048364;28;20039;-67
2022/03/08 10:03:38;;;;;;;10.15;5.57;;;8.30;91.50;;;;;;5049820;28;20025;-66
2022/03/08 10:06:06;;;;;;;4.95;4.43;;;8.40;91.10;;;;;;5049883;28;20369;-66
2022/03/08 10:08:32;;;;;;;5.75;4.50;;;8.30;90.30;;;;;;5048750;28;20036;-68
2022/03/08 10:11:07;;;;;;;10.48;5.13;;;8.20;90.70;;;;;;5048073;28;20031;-67
2022/03/08 10:13:38;;;;;;;7.38;5.10;;;8.30;90.50;;;;;;5049987;28;20021;-66
2022/03/08 10:16:15;;;;;;;5.83;3.67;;;8.10;90.50;;;;;;5051329;28;20072;-68
2022/03/08 10:18:46;;;;;;;5.47;4.78;;;8.20;90.80;;;;;;5049420;28;20021;-68
2022/03/08 10:21:26;;;;;;;6.53;4.75;;;8.30;91.50;;;;;;5051529;28;20036;-67
2022/03/08 10:23:52;;;;;;;5.78;4.93;;;8.60;91.20;;;;;;5051643;28;20104;-68
2022/03/08 10:26:19;;;;;;;9.00;5.13;;;8.60;90.70;;;;;;5053042;28;20100;-67
2022/03/08 10:28:49;;;;;;;7.75;5.30;;;8.60;90.70;;;;;;5052101;28;20569;-66
2022/03/08 10:31:16;;;;;;;6.95;6.03;;;8.60;90.90;;;;;;5051977;28;20025;-69
2022/03/08 10:33:43;;;;;;;7.75;5.75;;;8.70;91.10;;;;;;5050389;28;20060;-66
2022/03/08 10:36:26;;;;;;;5.55;5.05;;;8.70;90.40;;;;;;5051344;28;20021;-67
2022/03/08 10:39:09;;;;;;;11.73;3.97;;;8.80;90.70;;;;;;5050149;28;20525;-65
2022/03/08 10:41:53;;;;;;;10.95;5.65;;;8.70;89.80;;;;;;5050870;28;20025;-66
2022/03/08 10:44:37;;;;;;;7.82;6.00;;;8.50;90.30;;;;;;5049830;28;20049;-67
2022/03/08 10:47:10;;;;;;;7.40;4.05;;;8.40;90.00;;;;;;5050363;28;20491;-66
2022/03/08 10:49:48;;;;;;;5.47;4.57;;;8.40;90.00;;;;;;5050519;28;20143;-66
2022/03/08 10:52:14;;;;;;;12.38;5.55;;;8.60;90.00;;;;;;5048535;28;20057;-66
2022/03/08 10:54:40;;;;;;;6.35;5.05;;;8.60;89.90;;;;;;5045548;28;20151;-66
2022/03/08 10:57:07;;;;;;;6.63;5.25;;;8.60;90.00;;;;;;5038680;28;20032;-66
2022/03/08 10:59:33;;;;;;;9.02;6.47;;;8.80;90.00;;;;;;5043456;28;20125;-67
2022/03/08 11:02:19;;;;;;;10.25;5.18;;;8.90;89.70;;;;;;5042483;28;20122;-66
2022/03/08 11:04:45;;;;;;;7.93;5.10;;;8.90;89.10;;;;;;5041241;28;20331;-66
2022/03/08 11:07:12;;;;;;;9.73;4.07;;;8.80;89.50;;;;;;5039967;28;20104;-68
2022/03/08 11:09:38;;;;;;;9.63;5.15;;;8.90;90.10;;;;;;5029726;28;20048;-67
2022/03/08 11:12:05;;;;;;;7.60;5.50;;;9.00;90.00;;;;;;5028304;28;20033;-66
2022/03/08 11:14:30;;;;;;;15.07;5.25;;;9.10;90.20;;;;;;5058424;28;20025;-67
2022/03/08 11:16:58;;;;;;;5.80;5.30;;;9.20;89.30;;;;;;5040365;28;20037;-67
2022/03/08 11:19:27;;;;;;;10.18;5.47;;;9.00;88.80;;;;;;5045127;28;20363;-68
2022/03/08 11:21:56;;;;;;;9.25;7.10;;;9.20;87.90;;;;;;5038947;28;20099;-67
2022/03/08 11:24:24;;;;;;;8.43;7.05;;;9.20;89.30;;;;;;5039054;28;20104;-70
2022/03/08 11:26:50;;;;;;;7.70;5.53;;;9.20;89.20;;;;;;5034497;28;20140;-67
2022/03/08 11:29:17;;;;;;;10.32;5.63;;;9.30;87.80;;;;;;5042491;28;20024;-66
2022/03/08 11:31:45;;;;;;;8.95;5.90;;;9.20;86.80;;;;;;5043519;28;20028;-66
2022/03/08 11:34:31;;;;;;;7.40;5.15;;;9.30;88.10;;;;;;5040567;28;20049;-67
2022/03/08 11:37:03;;;;;;;6.38;5.63;;;9.40;87.10;;;;;;5042292;28;20124;-65
2022/03/08 11:39:30;;;;;;;5.60;5.10;;;9.40;86.60;;;;;;5042683;28;20494;-68
2022/03/08 11:42:15;;;;;;;7.10;5.65;;;9.50;88.50;;;;;;5037708;28;20026;-67
2022/03/08 11:44:41;;;;;;;6.25;5.72;;;9.40;85.70;;;;;;5044667;28;20036;-67
2022/03/08 11:47:11;;;;;;;8.90;6.18;;;9.40;85.90;;;;;;5045349;28;20425;-67
2022/03/08 11:49:45;;;;;;;6.35;5.75;;;9.40;86.60;;;;;;5044661;28;20437;-67
2022/03/08 11:52:33;;;;;;;7.47;6.60;;;9.40;86.50;;;;;;5051231;28;20082;-68
2022/03/08 11:55:19;;;;;;;6.10;5.35;;;9.50;86.70;;;;;;5044700;28;20029;-67
2022/03/08 11:58:06;;;;;;;6.63;5.95;;;9.50;86.40;;;;;;5048199;28;20510;-66
2022/03/08 12:00:52;;;;;;;6.75;6.03;;;9.50;86.70;;;;;;5039555;28;20091;-67
2022/03/08 12:03:24;;;;;;;8.90;5.28;;;9.60;86.30;;;;;;5045232;28;20058;-68
2022/03/08 12:06:09;;;;;;;14.00;7.55;;;9.70;85.70;;;;;;5040157;28;20026;-67
2022/03/08 12:08:39;;;;;;;9.63;6.70;;;9.80;86.70;;;;;;5042607;28;20380;-67
2022/03/08 12:11:15;;;;;;;7.25;6.50;;;9.80;86.70;;;;;;5042117;28;20029;-67
2022/03/08 12:13:44;;;;;;;8.75;6.50;;;9.50;86.60;;;;;;5038739;28;20071;-68
2022/03/08 12:16:09;;;;;;;7.50;6.70;;;9.40;86.70;;;;;;5040687;28;20041;-68
2022/03/08 12:18:58;;;;;;;7.18;6.45;;;9.50;86.30;;;;;;5040181;28;20445;-68
2022/03/08 12:21:29;;;;;;;8.18;6.25;;;9.40;85.80;;;;;;5043339;28;20545;-65
2022/03/08 12:24:10;;;;;;;8.07;6.65;;;9.30;86.70;;;;;;5046572;28;20018;-67
2022/03/08 12:26:39;;;;;;;7.40;5.60;;;9.40;87.30;;;;;;5038722;28;20017;-68
2022/03/08 12:29:24;;;;;;;12.27;5.88;;;9.50;87.00;;;;;;5046529;28;20387;-66
2022/03/08 12:31:56;;;;;;;8.63;6.20;;;9.70;87.30;;;;;;5042817;28;20040;-66
2022/03/08 12:34:42;;;;;;;5.63;5.13;;;9.70;86.40;;;;;;5042315;28;20028;-67
2022/03/08 12:37:26;;;;;;;6.32;5.65;;;9.80;88.00;;;;;;5040984;28;20056;-67
2022/03/08 12:39:54;;;;;;;7.32;6.60;;;9.90;87.20;;;;;;5044363;28;20039;-67
2022/03/08 12:42:36;;;;;;;9.02;6.55;;;9.80;85.80;;;;;;5043485;28;20555;-67
2022/03/08 12:45:13;;;;;;;6.65;5.95;;;9.90;86.70;;;;;;5035343;28;20017;-68
2022/03/08 12:47:39;;;;;;;12.75;7.10;;;9.90;85.60;;;;;;5039690;28;20421;-67
2022/03/08 12:50:15;;;;;;;7.00;5.40;;;9.90;86.00;;;;;;5039698;28;20029;-67
2022/03/08 12:52:47;;;;;;;7.90;5.40;;;10.00;85.90;;;;;;5037760;28;20663;-67